sensor_id;sensor_type;location;lat;lon;timestamp;pressure;altitude;pressure_sealevel;temperature;humidity
84615;BME280;74845;51.204;22.580;2024-01-25T00:00:23;98438.88;;;4.47;65.36
84615;BME280;74845;51.204;22.580;2024-01-25T00:02:50;98449.66;;;4.66;65.07
84615;BME280;74845;51.204;22.580;2024-01-25T00:05:17;98454.16;;;4.53;65.38
84615;BME280;74845;51.204;22.580;2024-01-25T00:07:47;98399.59;;;4.23;64.95
84615;BME280;74845;51.204;22.580;2024-01-25T00:10:18;98424.31;;;4.43;65.45
84615;BME280;74845;51.204;22.580;2024-01-25T00:12:46;98454.25;;;4.52;64.46
84615;BME280;74845;51.204;22.580;2024-01-25T00:15:13;98438.75;;;4.37;64.98
84615;BME280;74845;51.204;22.580;2024-01-25T00:17:39;98401.25;;;4.24;64.78
84615;BME280;74845;51.204;22.580;2024-01-25T00:20:09;98425.28;;;4.42;64.90
84615;BME280;74845;51.204;22.580;2024-01-25T00:22:36;98425.84;;;4.34;64.43
84615;BME280;74845;51.204;22.580;2024-01-25T00:25:05;98407.34;;;4.25;64.72
84615;BME280;74845;51.204;22.580;2024-01-25T00:27:31;98457.97;;;4.49;64.24
84615;BME280;74845;51.204;22.580;2024-01-25T00:29:58;98446.50;;;4.39;64.17
84615;BME280;74845;51.204;22.580;2024-01-25T00:32:25;98418.56;;;4.27;64.18
84615;BME280;74845;51.204;22.580;2024-01-25T00:34:52;98440.25;;;4.29;64.40
84615;BME280;74845;51.204;22.580;2024-01-25T00:37:20;98429.75;;;4.29;64.19
84615;BME280;74845;51.204;22.580;2024-01-25T00:39:47;98411.16;;;4.21;64.04
84615;BME280;74845;51.204;22.580;2024-01-25T00:42:22;98462.50;;;4.58;63.85
84615;BME280;74845;51.204;22.580;2024-01-25T00:44:50;98420.56;;;4.23;63.66
84615;BME280;74845;51.204;22.580;2024-01-25T00:47:17;98419.53;;;4.26;63.83
84615;BME280;74845;51.204;22.580;2024-01-25T00:49:44;98396.72;;;4.15;63.80
84615;BME280;74845;51.204;22.580;2024-01-25T00:52:11;98444.09;;;4.36;63.45
84615;BME280;74845;51.204;22.580;2024-01-25T00:54:38;98453.44;;;4.51;63.51
84615;BME280;74845;51.204;22.580;2024-01-25T00:57:05;98377.75;;;4.00;63.54
84615;BME280;74845;51.204;22.580;2024-01-25T00:59:32;98434.31;;;4.38;63.39
84615;BME280;74845;51.204;22.580;2024-01-25T01:02:00;98423.75;;;4.39;63.20
84615;BME280;74845;51.204;22.580;2024-01-25T01:04:34;98464.88;;;4.50;63.13
84615;BME280;74845;51.204;22.580;2024-01-25T01:07:14;98462.75;;;4.66;63.80
84615;BME280;74845;51.204;22.580;2024-01-25T01:09:41;98417.47;;;4.29;62.08
84615;BME280;74845;51.204;22.580;2024-01-25T01:12:08;98454.75;;;4.46;63.46
84615;BME280;74845;51.204;22.580;2024-01-25T01:14:34;98375.34;;;3.97;63.40
84615;BME280;74845;51.204;22.580;2024-01-25T01:17:01;98439.25;;;4.18;63.29
84615;BME280;74845;51.204;22.580;2024-01-25T01:19:28;98381.53;;;3.96;63.30
84615;BME280;74845;51.204;22.580;2024-01-25T01:21:55;98362.91;;;3.77;63.10
84615;BME280;74845;51.204;22.580;2024-01-25T01:24:21;98437.00;;;4.14;63.63
84615;BME280;74845;51.204;22.580;2024-01-25T01:26:48;98431.25;;;4.09;63.76
84615;BME280;74845;51.204;22.580;2024-01-25T01:29:17;98457.97;;;4.25;64.03
84615;BME280;74845;51.204;22.580;2024-01-25T01:31:45;98443.91;;;4.15;64.15
84615;BME280;74845;51.204;22.580;2024-01-25T01:34:11;98414.91;;;3.94;64.13
84615;BME280;74845;51.204;22.580;2024-01-25T01:36:41;98369.06;;;3.64;64.63
84615;BME280;74845;51.204;22.580;2024-01-25T01:39:08;98448.81;;;4.20;64.25
84615;BME280;74845;51.204;22.580;2024-01-25T01:41:35;98416.56;;;3.95;64.74
84615;BME280;74845;51.204;22.580;2024-01-25T01:44:02;98426.34;;;4.04;64.77
84615;BME280;74845;51.204;22.580;2024-01-25T01:46:36;98456.31;;;4.24;64.35
84615;BME280;74845;51.204;22.580;2024-01-25T01:49:04;98420.72;;;3.98;64.41
84615;BME280;74845;51.204;22.580;2024-01-25T01:51:32;98336.47;;;3.45;64.86
84615;BME280;74845;51.204;22.580;2024-01-25T01:54:01;98451.53;;;4.18;65.18
84615;BME280;74845;51.204;22.580;2024-01-25T01:56:29;98426.94;;;3.97;64.82
84615;BME280;74845;51.204;22.580;2024-01-25T01:58:58;98455.84;;;4.19;64.70
84615;BME280;74845;51.204;22.580;2024-01-25T02:01:26;98440.88;;;4.32;64.28
84615;BME280;74845;51.204;22.580;2024-01-25T02:03:53;98425.88;;;3.99;64.78
84615;BME280;74845;51.204;22.580;2024-01-25T02:06:21;98429.47;;;4.09;64.93
84615;BME280;74845;51.204;22.580;2024-01-25T02:08:49;98406.09;;;3.95;64.68
84615;BME280;74845;51.204;22.580;2024-01-25T02:11:17;98426.22;;;3.95;64.96
84615;BME280;74845;51.204;22.580;2024-01-25T02:13:44;98450.22;;;4.12;64.92
84615;BME280;74845;51.204;22.580;2024-01-25T02:16:11;98404.16;;;3.86;64.36
84615;BME280;74845;51.204;22.580;2024-01-25T02:18:39;98439.75;;;4.12;64.91
84615;BME280;74845;51.204;22.580;2024-01-25T02:21:06;98401.63;;;3.84;64.58
84615;BME280;74845;51.204;22.580;2024-01-25T02:23:32;98408.31;;;3.88;64.67
84615;BME280;74845;51.204;22.580;2024-01-25T02:25:59;98378.41;;;3.80;64.71
84615;BME280;74845;51.204;22.580;2024-01-25T02:28:26;98421.72;;;4.08;64.67
84615;BME280;74845;51.204;22.580;2024-01-25T02:30:53;98378.28;;;3.81;64.14
84615;BME280;74845;51.204;22.580;2024-01-25T02:33:20;98409.41;;;3.97;64.22
84615;BME280;74845;51.204;22.580;2024-01-25T02:35:47;98418.41;;;4.06;64.64
84615;BME280;74845;51.204;22.580;2024-01-25T02:38:13;98371.16;;;3.83;63.75
84615;BME280;74845;51.204;22.580;2024-01-25T02:40:40;98335.38;;;3.60;63.99
84615;BME280;74845;51.204;22.580;2024-01-25T02:43:07;98377.97;;;3.86;64.42
84615;BME280;74845;51.204;22.580;2024-01-25T02:45:34;98375.78;;;3.80;64.34
84615;BME280;74845;51.204;22.580;2024-01-25T02:48:00;98411.47;;;4.05;64.06
84615;BME280;74845;51.204;22.580;2024-01-25T02:50:29;98397.28;;;3.96;63.76
84615;BME280;74845;51.204;22.580;2024-01-25T02:52:56;98362.34;;;3.84;63.68
84615;BME280;74845;51.204;22.580;2024-01-25T02:55:23;98388.69;;;3.94;64.00
84615;BME280;74845;51.204;22.580;2024-01-25T02:57:50;98400.59;;;3.98;63.77
84615;BME280;74845;51.204;22.580;2024-01-25T03:00:17;98381.16;;;3.89;63.67
84615;BME280;74845;51.204;22.580;2024-01-25T03:02:44;98401.72;;;4.07;63.64
84615;BME280;74845;51.204;22.580;2024-01-25T03:05:11;98370.31;;;3.83;63.55
84615;BME280;74845;51.204;22.580;2024-01-25T03:07:38;98362.19;;;3.75;63.51
84615;BME280;74845;51.204;22.580;2024-01-25T03:10:05;98371.28;;;3.82;63.03
84615;BME280;74845;51.204;22.580;2024-01-25T03:12:32;98297.19;;;3.33;63.44
84615;BME280;74845;51.204;22.580;2024-01-25T03:14:59;98392.16;;;3.95;63.44
84615;BME280;74845;51.204;22.580;2024-01-25T03:17:26;98407.78;;;4.07;63.67
84615;BME280;74845;51.204;22.580;2024-01-25T03:19:52;98396.69;;;3.93;63.20
84615;BME280;74845;51.204;22.580;2024-01-25T03:22:19;98368.78;;;3.80;62.96
84615;BME280;74845;51.204;22.580;2024-01-25T03:24:46;98388.31;;;3.87;63.07
84615;BME280;74845;51.204;22.580;2024-01-25T03:27:13;98384.13;;;3.85;63.03
84615;BME280;74845;51.204;22.580;2024-01-25T03:29:41;98409.78;;;4.04;63.07
84615;BME280;74845;51.204;22.580;2024-01-25T03:32:12;98411.00;;;4.11;63.13
84615;BME280;74845;51.204;22.580;2024-01-25T03:34:39;98401.56;;;3.97;63.03
84615;BME280;74845;51.204;22.580;2024-01-25T03:37:06;98415.88;;;4.04;63.25
84615;BME280;74845;51.204;22.580;2024-01-25T03:39:33;98384.13;;;3.85;63.57
84615;BME280;74845;51.204;22.580;2024-01-25T03:42:00;98414.19;;;4.03;63.00
84615;BME280;74845;51.204;22.580;2024-01-25T03:44:27;98335.25;;;3.61;62.70
84615;BME280;74845;51.204;22.580;2024-01-25T03:46:54;98373.88;;;3.82;63.06
84615;BME280;74845;51.204;22.580;2024-01-25T03:49:21;98410.75;;;4.03;62.93
84615;BME280;74845;51.204;22.580;2024-01-25T03:51:50;98371.97;;;3.73;63.15
84615;BME280;74845;51.204;22.580;2024-01-25T03:54:17;98368.97;;;3.77;63.23
84615;BME280;74845;51.204;22.580;2024-01-25T03:56:43;98356.13;;;3.74;63.28
84615;BME280;74845;51.204;22.580;2024-01-25T03:59:10;98406.47;;;4.02;62.55
84615;BME280;74845;51.204;22.580;2024-01-25T04:01:43;98383.91;;;3.88;63.15
84615;BME280;74845;51.204;22.580;2024-01-25T04:04:10;98367.09;;;3.79;62.77
84615;BME280;74845;51.204;22.580;2024-01-25T04:06:40;98353.63;;;3.73;62.59
84615;BME280;74845;51.204;22.580;2024-01-25T04:09:07;98413.50;;;4.01;62.74
84615;BME280;74845;51.204;22.580;2024-01-25T04:11:34;98408.47;;;3.98;63.00
84615;BME280;74845;51.204;22.580;2024-01-25T04:14:01;98317.69;;;3.40;62.38
84615;BME280;74845;51.204;22.580;2024-01-25T04:16:28;98376.34;;;3.72;62.89
84615;BME280;74845;51.204;22.580;2024-01-25T04:18:55;98396.81;;;4.02;62.58
84615;BME280;74845;51.204;22.580;2024-01-25T04:21:22;98376.00;;;3.77;61.93
84615;BME280;74845;51.204;22.580;2024-01-25T04:23:48;98374.47;;;3.74;61.64
84615;BME280;74845;51.204;22.580;2024-01-25T04:26:15;98425.41;;;4.05;61.97
84615;BME280;74845;51.204;22.580;2024-01-25T04:28:44;98411.44;;;3.94;61.89
84615;BME280;74845;51.204;22.580;2024-01-25T04:31:11;98386.66;;;3.86;61.68
84615;BME280;74845;51.204;22.580;2024-01-25T04:33:38;98418.28;;;4.07;62.75
84615;BME280;74845;51.204;22.580;2024-01-25T04:36:11;98426.84;;;4.09;61.72
84615;BME280;74845;51.204;22.580;2024-01-25T04:38:37;98421.59;;;4.09;61.76
84615;BME280;74845;51.204;22.580;2024-01-25T04:41:05;98341.69;;;3.69;61.74
84615;BME280;74845;51.204;22.580;2024-01-25T04:43:36;98420.06;;;4.18;62.30
84615;BME280;74845;51.204;22.580;2024-01-25T04:46:03;98380.34;;;3.89;61.44
84615;BME280;74845;51.204;22.580;2024-01-25T04:48:30;98422.22;;;4.13;61.48
84615;BME280;74845;51.204;22.580;2024-01-25T04:50:58;98367.47;;;3.86;61.36
84615;BME280;74845;51.204;22.580;2024-01-25T04:53:26;98391.06;;;3.97;61.29
84615;BME280;74845;51.204;22.580;2024-01-25T04:55:56;98391.69;;;4.01;61.68
84615;BME280;74845;51.204;22.580;2024-01-25T04:58:23;98406.34;;;4.03;61.20
84615;BME280;74845;51.204;22.580;2024-01-25T05:00:50;98397.50;;;3.93;60.67
84615;BME280;74845;51.204;22.580;2024-01-25T05:03:19;98425.22;;;4.20;60.96
84615;BME280;74845;51.204;22.580;2024-01-25T05:05:47;98434.00;;;4.18;61.57
84615;BME280;74845;51.204;22.580;2024-01-25T05:08:13;98422.31;;;4.11;61.31
84615;BME280;74845;51.204;22.580;2024-01-25T05:10:41;98368.41;;;3.85;60.63
84615;BME280;74845;51.204;22.580;2024-01-25T05:13:08;98375.72;;;3.93;61.24
84615;BME280;74845;51.204;22.580;2024-01-25T05:15:36;98437.38;;;4.21;60.54
84615;BME280;74845;51.204;22.580;2024-01-25T05:18:03;98407.41;;;4.01;60.93
84615;BME280;74845;51.204;22.580;2024-01-25T05:20:30;98387.50;;;3.87;61.10
84615;BME280;74845;51.204;22.580;2024-01-25T05:23:04;98438.59;;;4.28;60.92
84615;BME280;74845;51.204;22.580;2024-01-25T05:25:31;98341.44;;;3.60;60.34
84615;BME280;74845;51.204;22.580;2024-01-25T05:27:59;98434.38;;;4.14;60.77
84615;BME280;74845;51.204;22.580;2024-01-25T05:30:26;98416.81;;;4.03;60.63
84615;BME280;74845;51.204;22.580;2024-01-25T05:32:53;98415.66;;;4.07;61.29
84615;BME280;74845;51.204;22.580;2024-01-25T05:35:21;98397.28;;;3.96;60.83
84615;BME280;74845;51.204;22.580;2024-01-25T05:37:49;98397.16;;;3.98;60.06
84615;BME280;74845;51.204;22.580;2024-01-25T05:40:16;98412.78;;;3.99;60.78
84615;BME280;74845;51.204;22.580;2024-01-25T05:42:43;98445.00;;;4.24;60.36
84615;BME280;74845;51.204;22.580;2024-01-25T05:45:10;98414.09;;;4.05;60.60
84615;BME280;74845;51.204;22.580;2024-01-25T05:47:37;98424.34;;;4.08;60.60
84615;BME280;74845;51.204;22.580;2024-01-25T05:50:04;98451.06;;;4.24;60.51
84615;BME280;74845;51.204;22.580;2024-01-25T05:52:34;98437.59;;;4.17;60.19
84615;BME280;74845;51.204;22.580;2024-01-25T05:55:06;98434.63;;;4.22;61.08
84615;BME280;74845;51.204;22.580;2024-01-25T05:57:37;98424.34;;;4.08;60.79
84615;BME280;74845;51.204;22.580;2024-01-25T06:00:04;98453.69;;;4.24;60.61
84615;BME280;74845;51.204;22.580;2024-01-25T06:02:33;98419.38;;;4.16;61.12
84615;BME280;74845;51.204;22.580;2024-01-25T06:05:01;98451.91;;;4.25;60.88
84615;BME280;74845;51.204;22.580;2024-01-25T06:07:28;98389.00;;;3.78;60.98
84615;BME280;74845;51.204;22.580;2024-01-25T06:09:55;98427.81;;;4.08;60.51
84615;BME280;74845;51.204;22.580;2024-01-25T06:12:22;98427.31;;;4.03;60.72
84615;BME280;74845;51.204;22.580;2024-01-25T06:14:49;98432.22;;;4.08;60.93
84615;BME280;74845;51.204;22.580;2024-01-25T06:17:15;98381.88;;;3.80;60.87
84615;BME280;74845;51.204;22.580;2024-01-25T06:19:42;98423.16;;;4.01;60.97
84615;BME280;74845;51.204;22.580;2024-01-25T06:22:09;98425.75;;;4.01;61.17
84615;BME280;74845;51.204;22.580;2024-01-25T06:24:36;98405.72;;;3.88;60.99
84615;BME280;74845;51.204;22.580;2024-01-25T06:27:03;98442.63;;;4.21;61.83
84615;BME280;74845;51.204;22.580;2024-01-25T06:29:30;98451.44;;;4.20;61.16
84615;BME280;74845;51.204;22.580;2024-01-25T06:31:56;98430.88;;;4.02;61.31
84615;BME280;74845;51.204;22.580;2024-01-25T06:34:23;98417.66;;;3.93;61.11
84615;BME280;74845;51.204;22.580;2024-01-25T06:36:50;98433.13;;;3.96;61.47
84615;BME280;74845;51.204;22.580;2024-01-25T06:39:17;98429.66;;;3.95;61.94
84615;BME280;74845;51.204;22.580;2024-01-25T06:41:44;98442.31;;;4.01;62.29
84615;BME280;74845;51.204;22.580;2024-01-25T06:44:11;98420.81;;;3.85;62.92
84615;BME280;74845;51.204;22.580;2024-01-25T06:46:37;98423.78;;;3.80;62.92
84615;BME280;74845;51.204;22.580;2024-01-25T06:49:04;98453.75;;;4.00;63.03
84615;BME280;74845;51.204;22.580;2024-01-25T06:51:31;98412.94;;;3.74;62.82
84615;BME280;74845;51.204;22.580;2024-01-25T06:53:59;98478.31;;;4.10;63.32
84615;BME280;74845;51.204;22.580;2024-01-25T06:56:26;98452.88;;;3.88;62.78
84615;BME280;74845;51.204;22.580;2024-01-25T06:58:52;98456.94;;;3.93;63.40
84615;BME280;74845;51.204;22.580;2024-01-25T07:01:20;98437.47;;;3.73;63.17
84615;BME280;74845;51.204;22.580;2024-01-25T07:03:48;98459.19;;;3.86;63.77
84615;BME280;74845;51.204;22.580;2024-01-25T07:06:19;98469.19;;;3.92;63.39
84615;BME280;74845;51.204;22.580;2024-01-25T07:08:46;98394.00;;;3.46;63.35
84615;BME280;74845;51.204;22.580;2024-01-25T07:11:13;98461.19;;;3.82;63.94
84615;BME280;74845;51.204;22.580;2024-01-25T07:13:41;98487.59;;;4.03;63.99
84615;BME280;74845;51.204;22.580;2024-01-25T07:16:08;98478.63;;;3.95;63.21
84615;BME280;74845;51.204;22.580;2024-01-25T07:18:35;98465.72;;;3.80;63.80
84615;BME280;74845;51.204;22.580;2024-01-25T07:21:02;98431.31;;;3.61;63.50
84615;BME280;74845;51.204;22.580;2024-01-25T07:23:33;98450.59;;;3.84;63.84
84615;BME280;74845;51.204;22.580;2024-01-25T07:26:00;98481.81;;;3.87;63.79
84615;BME280;74845;51.204;22.580;2024-01-25T07:28:27;98464.63;;;3.83;63.92
84615;BME280;74845;51.204;22.580;2024-01-25T07:30:54;98442.41;;;3.64;63.82
84615;BME280;74845;51.204;22.580;2024-01-25T07:33:21;98457.22;;;3.77;64.12
84615;BME280;74845;51.204;22.580;2024-01-25T07:35:48;98482.41;;;3.90;63.67
84615;BME280;74845;51.204;22.580;2024-01-25T07:38:15;98452.31;;;3.72;63.93
84615;BME280;74845;51.204;22.580;2024-01-25T07:40:42;98477.22;;;3.78;63.76
84615;BME280;74845;51.204;22.580;2024-01-25T07:43:09;98483.25;;;3.91;64.26
84615;BME280;74845;51.204;22.580;2024-01-25T07:45:36;98486.22;;;3.86;63.75
84615;BME280;74845;51.204;22.580;2024-01-25T07:48:03;98491.84;;;3.93;64.17
84615;BME280;74845;51.204;22.580;2024-01-25T07:50:40;98459.00;;;3.76;63.51
84615;BME280;74845;51.204;22.580;2024-01-25T07:53:07;98466.75;;;3.78;63.81
84615;BME280;74845;51.204;22.580;2024-01-25T07:55:34;98484.06;;;3.91;63.48
84615;BME280;74845;51.204;22.580;2024-01-25T07:58:01;98499.03;;;4.02;63.50
84615;BME280;74845;51.204;22.580;2024-01-25T08:00:28;98464.03;;;3.79;63.83
84615;BME280;74845;51.204;22.580;2024-01-25T08:02:55;98494.03;;;3.99;63.62
84615;BME280;74845;51.204;22.580;2024-01-25T08:05:22;98486.22;;;3.86;63.68
84615;BME280;74845;51.204;22.580;2024-01-25T08:07:59;98494.75;;;4.01;63.25
84615;BME280;74845;51.204;22.580;2024-01-25T08:10:26;98505.72;;;4.06;63.45
84615;BME280;74845;51.204;22.580;2024-01-25T08:12:54;98466.75;;;3.78;63.19
84615;BME280;74845;51.204;22.580;2024-01-25T08:15:32;98456.28;;;3.78;63.67
84615;BME280;74845;51.204;22.580;2024-01-25T08:17:59;98506.44;;;4.08;63.14
84615;BME280;74845;51.204;22.580;2024-01-25T08:20:26;98466.19;;;3.85;63.70
84615;BME280;74845;51.204;22.580;2024-01-25T08:22:53;98505.50;;;4.09;63.83
84615;BME280;74845;51.204;22.580;2024-01-25T08:25:19;98502.88;;;4.09;63.40
84615;BME280;74845;51.204;22.580;2024-01-25T08:27:47;98498.47;;;4.10;63.17
84615;BME280;74845;51.204;22.580;2024-01-25T08:30:14;98519.09;;;4.14;63.60
84615;BME280;74845;51.204;22.580;2024-01-25T08:32:41;98488.09;;;4.08;63.34
84615;BME280;74845;51.204;22.580;2024-01-25T08:35:08;98466.94;;;3.99;62.78
84615;BME280;74845;51.204;22.580;2024-01-25T08:37:35;98450.75;;;3.94;62.85
84615;BME280;74845;51.204;22.580;2024-01-25T08:40:05;98466.75;;;4.02;62.57
84615;BME280;74845;51.204;22.580;2024-01-25T08:42:33;98484.50;;;4.09;63.33
84615;BME280;74845;51.204;22.580;2024-01-25T08:45:00;98464.44;;;3.97;62.91
84615;BME280;74845;51.204;22.580;2024-01-25T08:47:27;98447.19;;;3.95;62.71
84615;BME280;74845;51.204;22.580;2024-01-25T08:49:54;98501.34;;;4.18;62.67
84615;BME280;74845;51.204;22.580;2024-01-25T08:52:21;98466.63;;;4.03;63.13
84615;BME280;74845;51.204;22.580;2024-01-25T08:54:48;98517.41;;;4.37;62.55
84615;BME280;74845;51.204;22.580;2024-01-25T08:57:15;98497.09;;;4.28;62.94
84615;BME280;74845;51.204;22.580;2024-01-25T08:59:42;98417.34;;;3.84;62.46
84615;BME280;74845;51.204;22.580;2024-01-25T09:02:08;98441.13;;;4.05;62.73
84615;BME280;74845;51.204;22.580;2024-01-25T09:04:35;98513.88;;;4.50;62.15
84615;BME280;74845;51.204;22.580;2024-01-25T09:07:04;98470.25;;;4.25;61.78
84615;BME280;74845;51.204;22.580;2024-01-25T09:09:31;98500.38;;;4.43;62.46
84615;BME280;74845;51.204;22.580;2024-01-25T09:11:57;98478.88;;;4.27;62.16
84615;BME280;74845;51.204;22.580;2024-01-25T09:14:24;98483.75;;;4.31;62.03
84615;BME280;74845;51.204;22.580;2024-01-25T09:16:51;98476.72;;;4.32;61.71
84615;BME280;74845;51.204;22.580;2024-01-25T09:19:18;98437.97;;;4.13;61.44
84615;BME280;74845;51.204;22.580;2024-01-25T09:21:45;98480.34;;;4.42;62.29
84615;BME280;74845;51.204;22.580;2024-01-25T09:24:12;98499.72;;;4.52;62.20
84615;BME280;74845;51.204;22.580;2024-01-25T09:26:38;98477.03;;;4.40;62.24
84615;BME280;74845;51.204;22.580;2024-01-25T09:29:05;98434.25;;;4.15;61.63
84615;BME280;74845;51.204;22.580;2024-01-25T09:31:32;98500.91;;;4.59;61.80
84615;BME280;74845;51.204;22.580;2024-01-25T09:33:59;98507.84;;;4.60;61.75
84615;BME280;74845;51.204;22.580;2024-01-25T09:36:26;98483.09;;;4.52;61.39
84615;BME280;74845;51.204;22.580;2024-01-25T09:38:53;98509.25;;;4.64;61.62
84615;BME280;74845;51.204;22.580;2024-01-25T09:41:20;98444.50;;;4.18;61.40
84615;BME280;74845;51.204;22.580;2024-01-25T09:43:47;98517.41;;;4.73;61.87
84615;BME280;74845;51.204;22.580;2024-01-25T09:46:14;98506.88;;;4.61;61.89
84615;BME280;74845;51.204;22.580;2024-01-25T09:48:43;98495.22;;;4.65;62.04
84615;BME280;74845;51.204;22.580;2024-01-25T09:51:13;98523.22;;;4.76;61.94
84615;BME280;74845;51.204;22.580;2024-01-25T09:53:40;98534.47;;;4.89;61.75
84615;BME280;74845;51.204;22.580;2024-01-25T09:56:12;98528.38;;;4.89;61.87
84615;BME280;74845;51.204;22.580;2024-01-25T09:58:43;98483.47;;;4.58;61.59
84615;BME280;74845;51.204;22.580;2024-01-25T10:01:14;98543.16;;;4.90;61.78
84615;BME280;74845;51.204;22.580;2024-01-25T10:03:43;98503.16;;;4.64;61.43
84615;BME280;74845;51.204;22.580;2024-01-25T10:06:10;98498.03;;;4.62;61.54
84615;BME280;74845;51.204;22.580;2024-01-25T10:08:38;98539.59;;;4.91;61.50
84615;BME280;74845;51.204;22.580;2024-01-25T10:11:05;98520.72;;;4.75;61.72
84615;BME280;74845;51.204;22.580;2024-01-25T10:13:32;98521.72;;;4.85;61.64
84615;BME280;74845;51.204;22.580;2024-01-25T10:15:59;98549.16;;;4.92;62.18
84615;BME280;74845;51.204;22.580;2024-01-25T10:18:26;98459.25;;;4.43;62.02
84615;BME280;74845;51.204;22.580;2024-01-25T10:20:56;98481.09;;;4.55;61.82
84615;BME280;74845;51.204;22.580;2024-01-25T10:23:24;98550.72;;;4.94;61.59
84615;BME280;74845;51.204;22.580;2024-01-25T10:25:53;98519.78;;;4.76;61.95
84615;BME280;74845;51.204;22.580;2024-01-25T10:28:20;98509.75;;;4.69;62.01
84615;BME280;74845;51.204;22.580;2024-01-25T10:30:47;98524.69;;;4.80;61.87
84615;BME280;74845;51.204;22.580;2024-01-25T10:33:15;98501.53;;;4.74;61.85
84615;BME280;74845;51.204;22.580;2024-01-25T10:35:43;98548.31;;;5.03;61.68
84615;BME280;74845;51.204;22.580;2024-01-25T10:38:13;98519.94;;;4.85;61.53
84615;BME280;74845;51.204;22.580;2024-01-25T10:40:40;98506.44;;;4.79;61.70
84615;BME280;74845;51.204;22.580;2024-01-25T10:43:11;98522.66;;;4.95;61.53
84615;BME280;74845;51.204;22.580;2024-01-25T10:45:38;98538.44;;;5.06;61.56
84615;BME280;74845;51.204;22.580;2024-01-25T10:48:07;98555.03;;;5.18;61.46
84615;BME280;74845;51.204;22.580;2024-01-25T10:50:34;98513.72;;;4.86;61.25
84615;BME280;74845;51.204;22.580;2024-01-25T10:53:02;98537.34;;;5.09;60.96
84615;BME280;74845;51.204;22.580;2024-01-25T10:55:29;98508.59;;;4.96;60.86
84615;BME280;74845;51.204;22.580;2024-01-25T10:57:56;98493.78;;;4.84;61.43
84615;BME280;74845;51.204;22.580;2024-01-25T11:00:23;98495.25;;;4.99;60.98
84615;BME280;74845;51.204;22.580;2024-01-25T11:02:51;98530.66;;;5.16;60.81
84615;BME280;74845;51.204;22.580;2024-01-25T11:05:18;98518.13;;;5.08;61.34
84615;BME280;74845;51.204;22.580;2024-01-25T11:07:50;98542.50;;;5.33;61.06
84615;BME280;74845;51.204;22.580;2024-01-25T11:10:19;98554.69;;;5.34;61.30
84615;BME280;74845;51.204;22.580;2024-01-25T11:12:51;98561.38;;;5.38;61.44
84615;BME280;74845;51.204;22.580;2024-01-25T11:15:30;98507.63;;;5.08;61.37
84615;BME280;74845;51.204;22.580;2024-01-25T11:17:57;98532.47;;;5.15;61.76
84615;BME280;74845;51.204;22.580;2024-01-25T11:20:26;98521.00;;;5.16;62.17
84615;BME280;74845;51.204;22.580;2024-01-25T11:23:04;98513.84;;;5.18;61.27
84615;BME280;74845;51.204;22.580;2024-01-25T11:25:32;98523.75;;;5.15;61.29
84615;BME280;74845;51.204;22.580;2024-01-25T11:28:01;98512.88;;;5.08;61.73
84615;BME280;74845;51.204;22.580;2024-01-25T11:30:30;98556.94;;;5.27;62.68
84615;BME280;74845;51.204;22.580;2024-01-25T11:32:57;98514.81;;;5.06;62.28
84615;BME280;74845;51.204;22.580;2024-01-25T11:35:24;98530.78;;;5.14;62.05
84615;BME280;74845;51.204;22.580;2024-01-25T11:37:53;98554.44;;;5.25;61.75
84615;BME280;74845;51.204;22.580;2024-01-25T11:40:20;98558.94;;;5.23;61.60
84615;BME280;74845;51.204;22.580;2024-01-25T11:42:48;98529.94;;;5.03;62.13
84615;BME280;74845;51.204;22.580;2024-01-25T11:45:16;98504.16;;;4.96;62.41
84615;BME280;74845;51.204;22.580;2024-01-25T11:47:43;98563.38;;;5.23;62.21
84615;BME280;74845;51.204;22.580;2024-01-25T11:50:12;98539.63;;;5.13;62.43
84615;BME280;74845;51.204;22.580;2024-01-25T11:52:39;98550.72;;;5.17;62.41
84615;BME280;74845;51.204;22.580;2024-01-25T11:55:08;98548.91;;;5.17;62.23
84615;BME280;74845;51.204;22.580;2024-01-25T11:57:40;98562.06;;;5.29;62.12
84615;BME280;74845;51.204;22.580;2024-01-25T12:00:13;98564.94;;;5.25;62.29
84615;BME280;74845;51.204;22.580;2024-01-25T12:02:41;98524.72;;;4.91;61.93
84615;BME280;74845;51.204;22.580;2024-01-25T12:05:10;98561.13;;;5.18;62.51
84615;BME280;74845;51.204;22.580;2024-01-25T12:07:39;98524.81;;;4.90;61.87
84615;BME280;74845;51.204;22.580;2024-01-25T12:10:07;98498.06;;;4.74;61.96
84615;BME280;74845;51.204;22.580;2024-01-25T12:12:35;98505.44;;;4.68;62.14
84615;BME280;74845;51.204;22.580;2024-01-25T12:15:07;98572.81;;;5.14;62.34
84615;BME280;74845;51.204;22.580;2024-01-25T12:17:34;98517.88;;;4.78;62.02
84615;BME280;74845;51.204;22.580;2024-01-25T12:20:05;98582.00;;;5.20;61.50
84615;BME280;74845;51.204;22.580;2024-01-25T12:22:38;98423.66;;;4.06;62.00
84615;BME280;74845;51.204;22.580;2024-01-25T12:25:09;98520.75;;;4.86;61.63
84615;BME280;74845;51.204;22.580;2024-01-25T12:27:39;98593.94;;;5.24;61.29
84615;BME280;74845;51.204;22.580;2024-01-25T12:30:07;98535.78;;;4.95;61.41
84615;BME280;74845;51.204;22.580;2024-01-25T12:32:35;98590.84;;;5.19;61.97
84615;BME280;74845;51.204;22.580;2024-01-25T12:35:02;98589.06;;;5.19;61.45
84615;BME280;74845;51.204;22.580;2024-01-25T12:37:30;98538.38;;;4.84;61.49
84615;BME280;74845;51.204;22.580;2024-01-25T12:39:57;98491.72;;;4.54;61.16
84615;BME280;74845;51.204;22.580;2024-01-25T12:42:24;98595.72;;;5.12;60.70
84615;BME280;74845;51.204;22.580;2024-01-25T12:44:53;98558.91;;;4.90;60.89
84615;BME280;74845;51.204;22.580;2024-01-25T12:47:23;98588.41;;;4.93;61.25
84615;BME280;74845;51.204;22.580;2024-01-25T12:49:50;98614.19;;;5.11;61.09
84615;BME280;74845;51.204;22.580;2024-01-25T12:52:17;98457.34;;;4.10;61.35
84615;BME280;74845;51.204;22.580;2024-01-25T12:54:44;98620.66;;;5.07;61.27
84615;BME280;74845;51.204;22.580;2024-01-25T12:57:11;98570.47;;;4.76;60.93
84615;BME280;74845;51.204;22.580;2024-01-25T12:59:38;98573.72;;;4.80;60.62
84615;BME280;74845;51.204;22.580;2024-01-25T13:02:06;98614.78;;;5.03;61.15